createdAt,value
2017-04-02T00:05:05.984Z,14.33
2017-04-02T00:08:00.935Z,14.28
2017-04-02T00:10:56.045Z,14.23
2017-04-02T00:13:50.883Z,14.22
2017-04-02T00:16:45.798Z,14.20
2017-04-02T00:19:40.832Z,14.21
2017-04-02T00:22:35.901Z,14.20
2017-04-02T00:25:31.003Z,14.18
2017-04-02T00:28:25.995Z,14.14
2017-04-02T00:31:20.982Z,14.11
2017-04-02T00:34:15.986Z,14.08
2017-04-02T00:37:10.871Z,14.04
2017-04-02T00:40:05.839Z,13.99
2017-04-02T00:45:56.229Z,13.84
2017-04-02T00:48:51.350Z,13.75
2017-04-02T00:51:46.334Z,13.68
2017-04-02T00:54:41.273Z,13.65
2017-04-02T00:57:36.169Z,13.58
2017-04-02T01:00:31.104Z,13.51
2017-04-02T01:03:25.983Z,13.45
2017-04-02T01:06:20.978Z,13.38
2017-04-02T01:09:15.894Z,13.32
2017-04-02T01:15:05.806Z,13.23
2017-04-02T01:18:00.653Z,13.19
2017-04-02T01:20:55.607Z,13.14
2017-04-02T01:26:45.803Z,13.11
2017-04-02T01:29:40.606Z,13.18
2017-04-02T01:32:35.662Z,13.24
2017-04-02T01:35:30.693Z,13.26
2017-04-02T01:38:25.576Z,13.29
2017-04-02T01:41:20.575Z,13.28
2017-04-02T01:47:10.572Z,13.13
2017-04-02T01:50:05.520Z,13.04
2017-04-02T01:53:00.361Z,12.99
2017-04-02T01:58:50.346Z,12.86
2017-04-02T02:01:45.380Z,12.77
2017-04-02T02:04:40.242Z,12.69
2017-04-02T02:07:35.676Z,12.63
2017-04-02T02:10:30.514Z,12.60
2017-04-02T02:13:25.499Z,12.60
2017-04-02T02:16:20.543Z,12.60
2017-04-02T02:19:15.419Z,12.53
2017-04-02T02:25:05.229Z,12.38
2017-04-02T02:28:00.286Z,12.32
2017-04-02T02:30:55.220Z,12.25
2017-04-02T02:33:50.133Z,12.18
2017-04-02T02:39:39.914Z,12.05
2017-04-02T02:42:34.801Z,11.99
2017-04-02T02:45:29.702Z,11.96
2017-04-02T02:48:24.647Z,11.92
2017-04-02T02:54:14.623Z,11.90
2017-04-02T02:57:09.591Z,11.88
2017-04-02T03:00:04.522Z,11.91
2017-04-02T03:02:59.496Z,11.92
2017-04-02T03:05:54.406Z,11.88
2017-04-02T03:08:49.345Z,11.81
2017-04-02T03:11:44.356Z,11.75
2017-04-02T03:14:39.592Z,11.70
2017-04-02T03:17:34.513Z,11.65
2017-04-02T03:20:29.409Z,11.61
2017-04-02T03:23:24.415Z,11.58
2017-04-02T03:26:19.311Z,11.54
2017-04-02T03:29:14.278Z,11.50
2017-04-02T03:32:09.071Z,11.46
2017-04-02T03:35:04.058Z,11.43
2017-04-02T03:37:58.968Z,11.42
2017-04-02T03:40:53.916Z,11.46
2017-04-02T03:43:48.833Z,11.45
2017-04-02T03:46:43.879Z,11.41
2017-04-02T03:49:38.766Z,11.40
2017-04-02T03:52:33.682Z,11.38
2017-04-02T03:55:28.582Z,11.36
2017-04-02T03:58:23.789Z,11.34
2017-04-02T04:01:18.655Z,11.31
2017-04-02T04:04:13.615Z,11.27
2017-04-02T04:07:08.374Z,11.24
2017-04-02T04:10:03.385Z,11.22
2017-04-02T04:12:58.288Z,11.18
2017-04-02T04:15:53.112Z,11.12
2017-04-02T04:18:47.998Z,11.09
2017-04-02T04:21:42.826Z,11.07
2017-04-02T04:24:37.772Z,11.05
2017-04-02T04:27:32.719Z,11.03
2017-04-02T04:30:27.502Z,11.02
2017-04-02T04:33:22.395Z,11.00
2017-04-02T04:36:17.203Z,10.99
2017-04-02T04:39:12.122Z,10.97
2017-04-02T04:42:06.971Z,10.95
2017-04-02T04:45:01.722Z,10.95
2017-04-02T04:47:56.592Z,10.95
2017-04-02T04:50:51.571Z,10.97
2017-04-02T04:53:46.311Z,11.01
2017-04-02T04:56:41.101Z,11.05
2017-04-02T05:05:25.591Z,11.14
2017-04-02T05:08:20.491Z,11.20
2017-04-02T05:11:15.456Z,11.24
2017-04-02T05:17:05.141Z,11.37
2017-04-02T05:20:00.017Z,11.46
2017-04-02T05:22:54.942Z,11.57
2017-04-02T05:25:49.838Z,11.71
2017-04-02T05:31:39.681Z,12.16
2017-04-02T05:34:34.481Z,12.66
2017-04-02T05:37:29.459Z,12.72
2017-04-02T05:40:24.362Z,12.81
2017-04-02T05:43:19.219Z,13.01
2017-04-02T05:46:14.066Z,13.23
2017-04-02T05:49:08.870Z,13.40
2017-04-02T05:52:03.864Z,13.56
2017-04-02T05:57:53.645Z,13.83
2017-04-02T06:00:48.577Z,14.26
2017-04-02T06:03:43.540Z,14.49
2017-04-02T06:06:38.600Z,14.88
2017-04-02T06:09:33.641Z,15.36
2017-04-02T06:12:28.640Z,15.80
2017-04-02T06:15:23.722Z,16.09
2017-04-02T06:18:18.710Z,16.36
2017-04-02T06:24:08.705Z,17.05
2017-04-02T06:27:03.702Z,17.55
2017-04-02T06:29:58.841Z,18.27
2017-04-02T06:32:53.710Z,17.51
2017-04-02T06:35:48.513Z,16.76
2017-04-02T06:38:43.181Z,16.19
2017-04-02T06:41:37.925Z,15.76
2017-04-02T06:44:32.780Z,15.55
2017-04-02T06:47:27.450Z,15.42
2017-04-02T06:50:21.948Z,15.42
2017-04-02T06:53:16.545Z,15.48
2017-04-02T06:56:11.148Z,15.73
2017-04-02T06:59:05.790Z,16.01
2017-04-02T07:02:00.444Z,16.75
2017-04-02T07:04:55.149Z,17.27
2017-04-02T07:07:49.971Z,18.09
2017-04-02T07:10:45.023Z,21.33
2017-04-02T07:13:40.493Z,22.46
2017-04-02T07:16:35.446Z,22.01
2017-04-02T07:19:29.127Z,21.26
2017-04-02T07:22:22.564Z,21.07
2017-04-02T07:25:15.616Z,21.25
2017-04-02T07:28:09.126Z,20.95
2017-04-02T07:31:02.945Z,20.29
2017-04-02T07:33:56.857Z,19.90
2017-04-02T07:36:51.478Z,19.77
2017-04-02T07:39:46.425Z,19.73
2017-04-02T07:42:40.720Z,19.37
2017-04-02T07:45:35.468Z,19.04
2017-04-02T07:48:30.378Z,18.86
2017-04-02T07:51:25.406Z,18.72
2017-04-02T07:54:20.454Z,18.60
2017-04-02T07:57:15.507Z,18.60
2017-04-02T08:00:10.446Z,18.75
2017-04-02T08:03:05.593Z,18.91
2017-04-02T08:06:00.451Z,18.95
2017-04-02T08:08:55.441Z,18.92
2017-04-02T08:11:50.482Z,18.90
2017-04-02T08:14:45.566Z,19.06
2017-04-02T08:17:40.722Z,19.57
2017-04-02T08:23:31.439Z,21.84
2017-04-02T08:26:26.777Z,22.76
2017-04-02T08:29:21.903Z,23.32
2017-04-02T08:32:17.038Z,23.56
2017-04-02T08:35:11.701Z,23.83
2017-04-02T08:38:06.798Z,23.92
2017-04-02T08:41:02.306Z,24.19
2017-04-02T08:43:58.096Z,24.60
2017-04-02T08:46:53.994Z,25.17
2017-04-02T08:49:49.754Z,25.26
2017-04-02T08:52:45.399Z,25.53
2017-04-02T08:55:40.778Z,25.47
2017-04-02T08:58:36.047Z,24.88
2017-04-02T09:01:31.009Z,24.27
2017-04-02T09:04:25.966Z,23.68
2017-04-02T09:07:20.661Z,23.08
2017-04-02T09:10:15.454Z,23.03
2017-04-02T09:13:10.326Z,22.87
2017-04-02T09:16:05.456Z,22.69
2017-04-02T09:19:00.360Z,22.17
2017-04-02T09:21:55.341Z,21.76
2017-04-02T09:24:50.496Z,22.21
2017-04-02T09:27:45.584Z,22.72
2017-04-02T09:30:40.229Z,23.21
2017-04-02T09:33:35.488Z,23.03
2017-04-02T09:36:30.077Z,22.48
2017-04-02T09:39:25.122Z,21.89
2017-04-02T09:42:20.339Z,21.23
2017-04-02T09:48:10.070Z,20.33
2017-04-02T09:51:04.756Z,19.99
2017-04-02T09:53:59.778Z,19.70
2017-04-02T09:56:54.971Z,19.72
2017-04-02T09:59:50.119Z,20.23
2017-04-02T10:02:45.353Z,20.85
2017-04-02T10:05:40.471Z,21.25
2017-04-02T10:08:35.777Z,21.54
2017-04-02T10:11:30.689Z,21.61
2017-04-02T10:14:25.599Z,22.04
2017-04-02T10:17:21.142Z,22.21
2017-04-02T10:20:16.757Z,23.13
2017-04-02T10:23:12.312Z,23.32
2017-04-02T10:26:07.798Z,22.84
2017-04-02T10:29:02.751Z,22.00
2017-04-02T10:31:57.904Z,21.19
2017-04-02T10:34:53.083Z,20.54
2017-04-02T10:37:48.385Z,20.81
2017-04-02T10:40:43.794Z,21.04
2017-04-02T10:43:39.153Z,21.23
2017-04-02T10:46:34.693Z,21.30
2017-04-02T10:49:30.001Z,21.25
2017-04-02T10:52:25.318Z,21.19
2017-04-02T10:55:20.684Z,21.35
2017-04-02T10:58:16.086Z,21.67
2017-04-02T11:01:11.499Z,21.67
2017-04-02T11:04:06.663Z,21.57
2017-04-02T11:07:01.723Z,21.54
2017-04-02T11:09:56.390Z,21.45
2017-04-02T11:12:51.321Z,21.25
2017-04-02T11:15:46.597Z,21.16
2017-04-02T11:18:41.869Z,20.80
2017-04-02T11:21:36.905Z,20.40
2017-04-02T11:27:26.825Z,19.67
2017-04-02T11:30:21.743Z,19.39
2017-04-02T11:33:16.229Z,19.39
2017-04-02T11:36:10.491Z,19.49
2017-04-02T11:39:05.172Z,19.65
2017-04-02T11:41:59.730Z,19.60
2017-04-02T11:44:55.039Z,19.54
2017-04-02T11:47:50.328Z,19.68
2017-04-02T11:50:44.752Z,19.95
2017-04-02T11:53:39.467Z,20.10
2017-04-02T11:56:34.619Z,20.45
2017-04-02T11:59:29.756Z,20.78
2017-04-02T12:02:25.050Z,20.67
2017-04-02T12:05:20.047Z,20.56
2017-04-02T12:08:14.749Z,20.40
2017-04-02T12:11:09.168Z,20.15
2017-04-02T12:14:03.352Z,19.89
2017-04-02T12:16:57.612Z,19.61
2017-04-02T12:19:52.235Z,19.32
2017-04-02T12:22:47.373Z,19.09
2017-04-02T12:25:42.287Z,18.94
2017-04-02T12:28:36.949Z,18.85
2017-04-02T12:31:31.662Z,18.86
2017-04-02T12:34:26.355Z,19.04
2017-04-02T12:37:21.143Z,19.22
2017-04-02T12:40:15.968Z,19.28
2017-04-02T12:43:10.826Z,19.18
2017-04-02T12:46:06.140Z,19.13
2017-04-02T12:49:01.225Z,19.11
2017-04-02T12:54:49.552Z,19.26
2017-04-02T12:57:44.555Z,19.49
2017-04-02T13:00:39.937Z,19.59
2017-04-02T13:03:35.180Z,19.67
2017-04-02T13:06:30.578Z,19.82
2017-04-02T13:09:25.746Z,20.03
2017-04-02T13:12:21.006Z,20.34
2017-04-02T13:15:15.920Z,20.49
2017-04-02T13:18:10.332Z,20.31
2017-04-02T13:21:05.292Z,20.13
2017-04-02T13:26:53.406Z,19.81
2017-04-02T13:29:47.671Z,19.75
2017-04-02T13:32:41.913Z,19.71
2017-04-02T13:35:36.891Z,19.70
2017-04-02T13:38:32.180Z,19.83
2017-04-02T13:41:27.589Z,19.99
2017-04-02T13:47:18.164Z,19.97
2017-04-02T13:50:13.355Z,19.77
2017-04-02T13:56:03.625Z,19.43
2017-04-02T13:58:58.818Z,19.37
2017-04-02T14:01:54.191Z,19.40
2017-04-02T14:04:49.321Z,19.37
2017-04-02T14:07:44.525Z,19.34
2017-04-02T14:10:39.676Z,19.41
2017-04-02T14:13:34.876Z,19.53
2017-04-02T14:16:29.939Z,19.83
2017-04-02T14:19:24.601Z,20.23
2017-04-02T14:22:19.506Z,20.33
2017-04-02T14:25:14.579Z,20.17
2017-04-02T14:28:09.683Z,19.90
2017-04-02T14:31:04.766Z,19.70
2017-04-02T14:33:59.986Z,19.56
2017-04-02T14:36:55.127Z,19.40
2017-04-02T14:39:50.235Z,19.30
2017-04-02T14:42:45.415Z,19.24
2017-04-02T14:45:40.647Z,19.10
2017-04-02T14:48:47.170Z,18.95
2017-04-02T14:51:37.701Z,19.01
2017-04-02T14:54:32.656Z,19.17
2017-04-02T14:57:27.873Z,19.21
2017-04-02T15:00:22.973Z,19.12
2017-04-02T15:03:18.084Z,18.96
2017-04-02T15:06:13.413Z,18.78
2017-04-02T15:09:08.612Z,18.68
2017-04-02T15:12:03.602Z,18.53
2017-04-02T15:14:58.741Z,18.45
2017-04-02T15:17:53.801Z,18.38
2017-04-02T15:20:48.740Z,18.28
2017-04-02T15:23:43.777Z,18.17
2017-04-02T15:26:38.836Z,18.03
2017-04-02T15:29:33.992Z,18.00
2017-04-02T15:32:28.975Z,17.95
2017-04-02T15:35:24.072Z,17.95
2017-04-02T15:38:18.903Z,17.98
2017-04-02T15:41:13.867Z,17.97
2017-04-02T15:44:08.845Z,17.96
2017-04-02T15:47:03.483Z,17.92
2017-04-02T15:49:58.517Z,17.82
2017-04-02T15:52:53.806Z,17.79
2017-04-02T15:55:48.673Z,17.71
2017-04-02T15:58:43.965Z,17.62
2017-04-02T16:01:39.031Z,17.52
2017-04-02T16:04:34.231Z,17.43
2017-04-02T16:07:29.216Z,17.34
2017-04-02T16:10:24.324Z,17.25
2017-04-02T16:13:19.339Z,17.17
2017-04-02T16:16:14.416Z,17.12
2017-04-02T16:19:08.670Z,17.07
2017-04-02T16:22:02.493Z,17.05
2017-04-02T16:24:56.400Z,17.01
2017-04-02T16:27:51.037Z,16.97
2017-04-02T16:30:44.867Z,16.96
2017-04-02T16:33:38.405Z,16.95
2017-04-02T16:39:26.990Z,16.90
2017-04-02T16:42:21.174Z,16.85
2017-04-02T16:45:15.240Z,16.80
2017-04-02T16:48:09.677Z,16.76
2017-04-02T16:51:03.642Z,16.72
2017-04-02T16:53:57.619Z,16.70
2017-04-02T16:56:51.243Z,16.66
2017-04-02T17:02:39.094Z,16.53
2017-04-02T17:05:33.801Z,16.44
2017-04-02T17:08:28.696Z,16.34
2017-04-02T17:11:23.590Z,16.21
2017-04-02T17:14:18.526Z,16.11
2017-04-02T17:17:13.290Z,16.02
2017-04-02T17:20:08.016Z,15.91
2017-04-02T17:23:02.898Z,15.81
2017-04-02T17:25:57.707Z,15.70
2017-04-02T17:28:52.334Z,15.62
2017-04-02T17:31:47.016Z,15.52
2017-04-02T17:34:41.629Z,15.44
2017-04-02T17:37:37.026Z,15.33
2017-04-02T17:40:31.903Z,15.24
2017-04-02T17:43:26.786Z,15.13
2017-04-02T17:46:21.626Z,15.03
2017-04-02T17:49:16.492Z,14.95
2017-04-02T17:52:11.368Z,14.85
2017-04-02T17:55:06.305Z,14.76
2017-04-02T17:58:01.326Z,14.65
2017-04-02T18:00:56.368Z,14.56
2017-04-02T18:03:51.463Z,14.51
2017-04-02T18:06:46.430Z,14.42
2017-04-02T18:09:41.415Z,14.33
2017-04-02T18:12:36.406Z,14.27
2017-04-02T18:15:31.458Z,14.20
2017-04-02T18:18:26.510Z,14.16
2017-04-02T18:21:21.407Z,14.09
2017-04-02T18:24:16.211Z,14.05
2017-04-02T18:27:10.950Z,13.99
2017-04-02T18:30:05.829Z,13.91
2017-04-02T18:33:00.723Z,13.86
2017-04-02T18:35:55.315Z,13.81
2017-04-02T18:38:50.161Z,13.76
2017-04-02T18:41:44.941Z,13.71
2017-04-02T18:44:39.781Z,13.64
2017-04-02T18:47:34.602Z,13.57
2017-04-02T18:50:29.380Z,13.51
2017-04-02T18:53:24.146Z,13.42
2017-04-02T18:56:18.920Z,13.33
2017-04-02T18:59:13.737Z,13.26
2017-04-02T19:02:08.651Z,13.19
2017-04-02T19:07:58.121Z,13.05
2017-04-02T19:10:52.854Z,12.99
2017-04-02T19:13:47.471Z,12.95
2017-04-02T19:16:42.171Z,12.88
2017-04-02T19:19:36.854Z,12.86
2017-04-02T19:22:31.529Z,12.82
2017-04-02T19:25:26.410Z,12.77
2017-04-02T19:28:21.193Z,12.73
2017-04-02T19:31:15.872Z,12.72
2017-04-02T19:34:10.617Z,12.70
2017-04-02T19:37:05.237Z,12.68
2017-04-02T19:42:54.622Z,12.59
2017-04-02T19:45:49.157Z,12.53
2017-04-02T19:48:43.707Z,12.47
2017-04-02T19:51:38.024Z,12.43
2017-04-02T19:54:32.428Z,12.39
2017-04-02T19:57:26.767Z,12.40
2017-04-02T20:00:21.272Z,12.41
2017-04-02T20:03:15.788Z,12.39
2017-04-02T20:06:10.231Z,12.40
2017-04-02T20:09:04.671Z,12.39
2017-04-02T20:11:58.963Z,12.38
2017-04-02T20:14:53.429Z,12.37
2017-04-02T20:17:47.725Z,12.35
2017-04-02T20:20:42.119Z,12.33
2017-04-02T20:23:36.466Z,12.30
2017-04-02T20:26:30.729Z,12.24
2017-04-02T20:29:25.127Z,12.17
2017-04-02T20:32:19.309Z,12.09
2017-04-02T20:38:07.983Z,11.95
2017-04-02T20:41:02.361Z,11.91
2017-04-02T20:43:56.721Z,11.86
2017-04-02T20:46:50.977Z,11.81
2017-04-02T20:49:45.258Z,11.75
2017-04-02T20:52:39.472Z,11.69
2017-04-02T20:55:33.688Z,11.65
2017-04-02T20:58:27.971Z,11.64
2017-04-02T21:01:22.181Z,11.64
2017-04-02T21:04:16.432Z,11.63
2017-04-02T21:07:10.519Z,11.64
2017-04-02T21:10:04.758Z,11.67
2017-04-02T21:12:59.007Z,11.70
2017-04-02T21:15:53.238Z,11.71
2017-04-02T21:18:47.548Z,11.74
2017-04-02T21:21:41.726Z,11.75
2017-04-02T21:24:35.899Z,11.75
2017-04-02T21:30:24.409Z,11.81
2017-04-02T21:33:18.644Z,11.90
2017-04-02T21:36:13.207Z,11.99
2017-04-02T21:39:07.547Z,12.07
2017-04-02T21:42:02.121Z,12.14
2017-04-02T21:44:56.574Z,12.18
2017-04-02T21:47:51.072Z,12.16
2017-04-02T21:53:40.244Z,12.07
2017-04-02T21:56:34.700Z,11.99
2017-04-02T21:59:29.153Z,11.92
2017-04-02T22:02:23.576Z,11.86
2017-04-02T22:05:17.970Z,11.79
2017-04-02T22:11:06.604Z,11.68
2017-04-02T22:14:01.020Z,11.62
2017-04-02T22:16:55.433Z,11.53
2017-04-02T22:19:49.826Z,11.45
2017-04-02T22:22:44.101Z,11.38
2017-04-02T22:25:38.510Z,11.32
2017-04-02T22:31:27.074Z,11.20
2017-04-02T22:37:15.592Z,11.16
2017-04-02T22:40:09.899Z,11.18
2017-04-02T22:43:04.204Z,11.19
2017-04-02T22:45:58.493Z,11.22
2017-04-02T22:48:52.721Z,11.25
2017-04-02T22:51:47.004Z,11.29
2017-04-02T22:54:41.307Z,11.32
2017-04-02T22:57:35.524Z,11.36
2017-04-02T23:03:24.383Z,11.35
2017-04-02T23:06:18.776Z,11.32
2017-04-02T23:09:13.116Z,11.29
2017-04-02T23:12:07.397Z,11.25
2017-04-02T23:15:01.631Z,11.19
2017-04-02T23:17:56.501Z,11.12
2017-04-02T23:23:45.199Z,10.97
2017-04-02T23:26:39.436Z,10.88
2017-04-02T23:29:33.695Z,10.81
2017-04-02T23:32:27.950Z,10.75
2017-04-02T23:35:22.148Z,10.69
2017-04-02T23:38:16.239Z,10.65
2017-04-02T23:41:10.448Z,10.61
2017-04-02T23:44:04.541Z,10.58
2017-04-02T23:49:52.325Z,10.51
2017-04-02T23:52:46.292Z,10.46
2017-04-02T23:55:40.260Z,10.42
2017-04-02T23:58:34.362Z,10.37
